Lynradar: storm image Ingen tordenbyger registrert..



Vårt webkamera mer informasjon My webcam


Kamera på Foreneset mer informasjon webcam on foreneset


Nedbørsradar  rain snow radar


Besøk vår andre værside:

Alternativ webside

iphone versjon

Nettbrett versjon

Foreneset
verstasjon



Ikke nødvendig med spesiell oppmerksomhet.    Det er ingen advarsler

Nære METAR rapporter

     
ENZV - Stavanger
oppdatert: 13-11-2019 08:20
Få Skyer  
Få Skyer  
   Vind: ØSØ 4.6 m/s
Vind: ØSØ 4.6 m/s
Temperatur: 5°C
Wind Chill: 2°C
Duggpunkt: 1°C
Fuktighet: 76%
Barometer: 995 hPa
Skyer: Få Skyer
Sikt: mer enn 10 km
Skydetaljer: Få Skyer 1066.8 m
ENZV 130720Z 12009KT 9999 FEW035TCU 05/01 Q0995
ENHD - Haugesund
oppdatert: 13-11-2019 08:20
For det meste skyet  
For det meste skyet  
   Vind: SØ 6.7 m/s
Vind: SØ 6.7 m/s
Temperatur: 6°C
Wind Chill: 2°C
Duggpunkt: 3°C
Fuktighet: 81%
Barometer: 994 hPa
Skyer: For det meste skyet
Sikt: mer enn 10 km
Skydetaljer: For det meste skyet 883.9 m
ENHD 130720Z 14013KT 9999 BKN029 06/03 Q0994
ENBR - Bergen
oppdatert: 13-11-2019 08:20
Lette byger, Regn, For det meste skyet  
Lette byger, Regn, For det meste skyet  
   Vind: SSØ 3.1 m/s
Vind: SSØ 3.1 m/s
Temperatur: 5°C
Wind Chill: 2°C
Duggpunkt: 4°C
Fuktighet: 93%
Barometer: 994 hPa
Skyer: For det meste skyet
Sikt: mer enn 10 km
Skydetaljer: Få Skyer 426.7 m,
Få Skyer 548.6 m,
Delvis Skyet 670.6 m,
For det meste skyet 914.4 m
ENBR 130720Z 15006KT 9999 -SHRA FEW014 FEW018CB SCT022 BKN030 05/04 Q0994 RMK WIND 1200FT 16020KT
ENCN - Kristiansand
oppdatert: 13-11-2019 08:20
Nære Byger, For det meste skyet  
Nære Byger, For det meste skyet  
   Vind: NØ 3.6 m/s
Vind: NØ 3.6 m/s
Temperatur: 3°C
Wind Chill: -1°C
Duggpunkt: 2°C
Fuktighet: 93%
Barometer: 997 hPa
Skyer: For det meste skyet
Sikt: mer enn 10 km
Skydetaljer: Få Skyer 152.4 m,
For det meste skyet 944.9 m
ENCN 130720Z 04007KT 9999 VCSH FEW005 BKN031 03/02 Q0997
ENGM - Oslo
oppdatert: 13-11-2019 08:20
Nære Byger, Overskyet  
Nære Byger, Overskyet  
   Vind: varierer 1 m/s
Vind: varierer 1 m/s
Temperatur: 1°C
Duggpunkt: 1°C
Fuktighet: 100%
Barometer: 999 hPa
Skyer: Overskyet
Sikt: 7 km
Skydetaljer: Få Skyer 61 m,
Overskyet 121.9 m
ENGM 130720Z VRB02KT 7000 VCSH FEW002 OVC004 01/01 Q0999 TEMPO 4000 -RA BR BKN006
ENVA - Trondheim
oppdatert: 13-11-2019 08:20
Klart  
Klart  
   Vind: Øst 2.1 m/s
Vind: Øst 2.1 m/s
Temperatur: 1°C
Wind Chill: -1°C
Duggpunkt: -2°C
Fuktighet: 81%
Barometer: 996 hPa
Sikt: mer enn 10 km
Skydetaljer: Klart
ENVA 130720Z 09004KT CAVOK 01/M02 Q0996 NOSIG RMK WIND 670FT 15010KT
    

Script utviklet av  Saratoga-weather.org Tilrettelagt for malen av  Weerstation Leuven

Du finner vår vær info også på:

UK Metoffice

European Weather Network

WeatherCloud

Weather Underground

Utstyr vi bruker:

Værstsjon
Davis VP2

Værprogram
Weather Display

Davis VP2

Weather Display